sensor_id;sensor_type;location;lat;lon;timestamp;pressure;altitude;pressure_sealevel;temperature;humidity
13027;BME280;6580;42.680;23.324;2024-02-16T00:00:31;95885.66;;;4.29;100.00
13027;BME280;6580;42.680;23.324;2024-02-16T00:02:58;95883.78;;;4.43;100.00
13027;BME280;6580;42.680;23.324;2024-02-16T00:05:26;95883.56;;;4.34;100.00
13027;BME280;6580;42.680;23.324;2024-02-16T00:07:53;95880.91;;;4.09;100.00
13027;BME280;6580;42.680;23.324;2024-02-16T00:10:20;95885.84;;;4.01;100.00
13027;BME280;6580;42.680;23.324;2024-02-16T00:12:48;95891.56;;;4.07;100.00
13027;BME280;6580;42.680;23.324;2024-02-16T00:15:19;95891.53;;;3.95;100.00
13027;BME280;6580;42.680;23.324;2024-02-16T00:17:47;95891.84;;;4.03;100.00
13027;BME280;6580;42.680;23.324;2024-02-16T00:20:14;95895.13;;;3.94;100.00
13027;BME280;6580;42.680;23.324;2024-02-16T00:22:41;95887.75;;;3.99;100.00
13027;BME280;6580;42.680;23.324;2024-02-16T00:25:11;95889.72;;;3.96;100.00
13027;BME280;6580;42.680;23.324;2024-02-16T00:27:38;95887.13;;;4.20;100.00
13027;BME280;6580;42.680;23.324;2024-02-16T00:30:06;95883.34;;;4.12;100.00
13027;BME280;6580;42.680;23.324;2024-02-16T00:32:39;95894.06;;;4.09;100.00
13027;BME280;6580;42.680;23.324;2024-02-16T00:35:06;95899.34;;;4.09;100.00
13027;BME280;6580;42.680;23.324;2024-02-16T00:37:34;95889.22;;;3.91;100.00
13027;BME280;6580;42.680;23.324;2024-02-16T00:40:01;95885.63;;;4.04;100.00
13027;BME280;6580;42.680;23.324;2024-02-16T00:42:28;95878.81;;;4.14;100.00
13027;BME280;6580;42.680;23.324;2024-02-16T00:44:56;95898.06;;;4.02;100.00
13027;BME280;6580;42.680;23.324;2024-02-16T00:47:27;95891.84;;;4.03;100.00
13027;BME280;6580;42.680;23.324;2024-02-16T00:49:56;95892.19;;;4.11;100.00
13027;BME280;6580;42.680;23.324;2024-02-16T00:52:23;95884.97;;;3.88;100.00
13027;BME280;6580;42.680;23.324;2024-02-16T00:54:50;95878.09;;;3.73;100.00
13027;BME280;6580;42.680;23.324;2024-02-16T00:57:21;95898.09;;;3.63;100.00
13027;BME280;6580;42.680;23.324;2024-02-16T00:59:49;95884.22;;;3.86;100.00
13027;BME280;6580;42.680;23.324;2024-02-16T01:02:17;95895.13;;;3.94;100.00
13027;BME280;6580;42.680;23.324;2024-02-16T01:04:45;95888.75;;;3.84;100.00
13027;BME280;6580;42.680;23.324;2024-02-16T01:07:15;95899.94;;;3.88;100.00
13027;BME280;6580;42.680;23.324;2024-02-16T01:09:44;95884.69;;;3.66;100.00
13027;BME280;6580;42.680;23.324;2024-02-16T01:12:11;95885.75;;;3.64;100.00
13027;BME280;6580;42.680;23.324;2024-02-16T01:14:37;95893.50;;;3.79;100.00
13027;BME280;6580;42.680;23.324;2024-02-16T01:17:05;95884.63;;;3.68;100.00
13027;BME280;6580;42.680;23.324;2024-02-16T01:19:32;95891.56;;;3.69;100.00
13027;BME280;6580;42.680;23.324;2024-02-16T01:21:59;95882.94;;;3.67;100.00
13027;BME280;6580;42.680;23.324;2024-02-16T01:24:27;95887.94;;;3.57;100.00
13027;BME280;6580;42.680;23.324;2024-02-16T01:26:54;95896.41;;;3.62;100.00
13027;BME280;6580;42.680;23.324;2024-02-16T01:29:21;95889.28;;;3.50;100.00
13027;BME280;6580;42.680;23.324;2024-02-16T01:31:51;95886.16;;;3.31;100.00
13027;BME280;6580;42.680;23.324;2024-02-16T01:34:25;95881.56;;;3.47;100.00
13027;BME280;6580;42.680;23.324;2024-02-16T01:36:52;95877.38;;;3.45;100.00
13027;BME280;6580;42.680;23.324;2024-02-16T01:39:19;95882.94;;;3.67;100.00
13027;BME280;6580;42.680;23.324;2024-02-16T01:41:47;95880.88;;;3.58;100.00
13027;BME280;6580;42.680;23.324;2024-02-16T01:44:14;95872.41;;;3.40;100.00
13027;BME280;6580;42.680;23.324;2024-02-16T01:46:42;95864.97;;;3.20;100.00
13027;BME280;6580;42.680;23.324;2024-02-16T01:49:09;95876.78;;;3.54;100.00
13027;BME280;6580;42.680;23.324;2024-02-16T01:51:37;95877.44;;;3.31;100.00
13027;BME280;6580;42.680;23.324;2024-02-16T01:54:04;95868.09;;;3.39;100.00
13027;BME280;6580;42.680;23.324;2024-02-16T01:56:31;95866.19;;;3.41;100.00
13027;BME280;6580;42.680;23.324;2024-02-16T01:59:00;95869.09;;;3.51;100.00
13027;BME280;6580;42.680;23.324;2024-02-16T02:01:28;95867.78;;;3.44;100.00
13027;BME280;6580;42.680;23.324;2024-02-16T02:03:56;95868.16;;;3.25;100.00
13027;BME280;6580;42.680;23.324;2024-02-16T02:06:23;95825.19;;;2.98;100.00
13027;BME280;6580;42.680;23.324;2024-02-16T02:08:51;95873.53;;;3.10;100.00
13027;BME280;6580;42.680;23.324;2024-02-16T02:11:20;95878.69;;;3.38;100.00
13027;BME280;6580;42.680;23.324;2024-02-16T02:13:47;95876.38;;;3.33;100.00
13027;BME280;6580;42.680;23.324;2024-02-16T02:16:16;95881.00;;;3.30;100.00
13027;BME280;6580;42.680;23.324;2024-02-16T02:18:43;95871.03;;;3.08;100.00
13027;BME280;6580;42.680;23.324;2024-02-16T02:21:11;95872.41;;;3.14;100.00
13027;BME280;6580;42.680;23.324;2024-02-16T02:23:42;95869.72;;;3.01;100.00
13027;BME280;6580;42.680;23.324;2024-02-16T02:26:09;95882.06;;;3.27;100.00
13027;BME280;6580;42.680;23.324;2024-02-16T02:28:36;95874.97;;;3.01;100.00
13027;BME280;6580;42.680;23.324;2024-02-16T02:31:03;95872.69;;;3.09;100.00
13027;BME280;6580;42.680;23.324;2024-02-16T02:33:31;95877.97;;;2.96;100.00
13027;BME280;6580;42.680;23.324;2024-02-16T02:35:58;95875.91;;;3.00;100.00
13027;BME280;6580;42.680;23.324;2024-02-16T02:38:26;95871.22;;;3.05;100.00
13027;BME280;6580;42.680;23.324;2024-02-16T02:40:54;95882.47;;;2.94;100.00
13027;BME280;6580;42.680;23.324;2024-02-16T02:43:22;95877.72;;;3.26;100.00
13027;BME280;6580;42.680;23.324;2024-02-16T02:45:49;95875.22;;;3.11;100.00
13027;BME280;6580;42.680;23.324;2024-02-16T02:48:16;95880.03;;;3.04;100.00
13027;BME280;6580;42.680;23.324;2024-02-16T02:50:43;95875.16;;;2.98;100.00
13027;BME280;6580;42.680;23.324;2024-02-16T02:53:11;95867.66;;;2.93;100.00
13027;BME280;6580;42.680;23.324;2024-02-16T02:55:40;95879.31;;;2.75;100.00
13027;BME280;6580;42.680;23.324;2024-02-16T02:58:09;95874.59;;;2.94;100.00
13027;BME280;6580;42.680;23.324;2024-02-16T03:00:35;95884.00;;;2.97;100.00
13027;BME280;6580;42.680;23.324;2024-02-16T03:03:03;95876.66;;;3.02;100.00
13027;BME280;6580;42.680;23.324;2024-02-16T03:05:30;95880.59;;;2.96;100.00
13027;BME280;6580;42.680;23.324;2024-02-16T03:07:58;95877.81;;;2.85;100.00
13027;BME280;6580;42.680;23.324;2024-02-16T03:10:27;95872.94;;;2.79;100.00
13027;BME280;6580;42.680;23.324;2024-02-16T03:13:00;95882.53;;;2.66;100.00
13027;BME280;6580;42.680;23.324;2024-02-16T03:15:29;95878.00;;;2.82;100.00
13027;BME280;6580;42.680;23.324;2024-02-16T03:17:56;95882.34;;;2.69;100.00
13027;BME280;6580;42.680;23.324;2024-02-16T03:20:24;95871.91;;;2.81;100.00
13027;BME280;6580;42.680;23.324;2024-02-16T03:22:51;95877.44;;;2.91;100.00
13027;BME280;6580;42.680;23.324;2024-02-16T03:25:18;95827.16;;;2.55;100.00
13027;BME280;6580;42.680;23.324;2024-02-16T03:27:45;95880.47;;;2.71;100.00
13027;BME280;6580;42.680;23.324;2024-02-16T03:30:12;95883.66;;;2.48;100.00
13027;BME280;6580;42.680;23.324;2024-02-16T03:32:41;95888.91;;;2.62;100.00
13027;BME280;6580;42.680;23.324;2024-02-16T03:35:08;95885.44;;;2.47;100.00
13027;BME280;6580;42.680;23.324;2024-02-16T03:37:35;95883.50;;;2.51;100.00
13027;BME280;6580;42.680;23.324;2024-02-16T03:40:06;95887.25;;;2.47;100.00
13027;BME280;6580;42.680;23.324;2024-02-16T03:42:33;95886.94;;;2.65;100.00
13027;BME280;6580;42.680;23.324;2024-02-16T03:45:01;95876.69;;;2.75;100.00
13027;BME280;6580;42.680;23.324;2024-02-16T03:47:29;95890.78;;;2.88;100.00
13027;BME280;6580;42.680;23.324;2024-02-16T03:49:59;95878.72;;;2.43;100.00
13027;BME280;6580;42.680;23.324;2024-02-16T03:52:27;95893.72;;;2.55;100.00
13027;BME280;6580;42.680;23.324;2024-02-16T03:54:54;95887.72;;;2.39;100.00
13027;BME280;6580;42.680;23.324;2024-02-16T03:57:21;95894.94;;;2.36;100.00
13027;BME280;6580;42.680;23.324;2024-02-16T03:59:50;95882.53;;;2.24;100.00
13027;BME280;6580;42.680;23.324;2024-02-16T04:02:25;95879.97;;;2.64;100.00
13027;BME280;6580;42.680;23.324;2024-02-16T04:04:53;95887.97;;;2.63;100.00
13027;BME280;6580;42.680;23.324;2024-02-16T04:07:21;95878.41;;;2.62;100.00
13027;BME280;6580;42.680;23.324;2024-02-16T04:09:51;95892.47;;;2.61;100.00
13027;BME280;6580;42.680;23.324;2024-02-16T04:12:18;95880.69;;;2.54;100.00
13027;BME280;6580;42.680;23.324;2024-02-16T04:14:45;95878.06;;;2.54;100.00
13027;BME280;6580;42.680;23.324;2024-02-16T04:17:14;95884.22;;;2.67;100.00
13027;BME280;6580;42.680;23.324;2024-02-16T04:19:41;95885.81;;;2.55;100.00
13027;BME280;6580;42.680;23.324;2024-02-16T04:22:09;95872.41;;;2.46;100.00
13027;BME280;6580;42.680;23.324;2024-02-16T04:24:38;95878.69;;;2.29;100.00
13027;BME280;6580;42.680;23.324;2024-02-16T04:27:07;95885.44;;;2.47;100.00
13027;BME280;6580;42.680;23.324;2024-02-16T04:29:34;95883.66;;;2.48;100.00
13027;BME280;6580;42.680;23.324;2024-02-16T04:32:02;95884.41;;;2.64;100.00
13027;BME280;6580;42.680;23.324;2024-02-16T04:34:29;95887.59;;;2.41;100.00
13027;BME280;6580;42.680;23.324;2024-02-16T04:36:57;95891.66;;;2.60;100.00
13027;BME280;6580;42.680;23.324;2024-02-16T04:39:24;95876.06;;;2.43;100.00
13027;BME280;6580;42.680;23.324;2024-02-16T04:41:52;95887.53;;;2.56;100.00
13027;BME280;6580;42.680;23.324;2024-02-16T04:44:27;95885.34;;;2.63;100.00
13027;BME280;6580;42.680;23.324;2024-02-16T04:46:55;95891.91;;;2.56;100.00
13027;BME280;6580;42.680;23.324;2024-02-16T04:49:22;95881.03;;;2.48;100.00
13027;BME280;6580;42.680;23.324;2024-02-16T04:51:50;95889.03;;;2.60;100.00
13027;BME280;6580;42.680;23.324;2024-02-16T04:54:21;95897.75;;;2.47;100.00
13027;BME280;6580;42.680;23.324;2024-02-16T04:56:49;95894.72;;;2.39;100.00
13027;BME280;6580;42.680;23.324;2024-02-16T04:59:18;95893.78;;;2.40;100.00
13027;BME280;6580;42.680;23.324;2024-02-16T05:01:48;95897.94;;;2.58;100.00
13027;BME280;6580;42.680;23.324;2024-02-16T05:04:15;95901.44;;;2.44;100.00
13027;BME280;6580;42.680;23.324;2024-02-16T05:06:46;95901.44;;;2.44;100.00
13027;BME280;6580;42.680;23.324;2024-02-16T05:09:14;95902.44;;;2.70;100.00
13027;BME280;6580;42.680;23.324;2024-02-16T05:11:42;95907.03;;;2.52;100.00
13027;BME280;6580;42.680;23.324;2024-02-16T05:14:10;95908.16;;;2.34;100.00
13027;BME280;6580;42.680;23.324;2024-02-16T05:16:44;95916.53;;;2.55;100.00
13027;BME280;6580;42.680;23.324;2024-02-16T05:19:11;95918.97;;;2.44;100.00
13027;BME280;6580;42.680;23.324;2024-02-16T05:21:38;95921.31;;;2.48;100.00
13027;BME280;6580;42.680;23.324;2024-02-16T05:24:07;95923.84;;;2.36;100.00
13027;BME280;6580;42.680;23.324;2024-02-16T05:26:34;95914.44;;;2.32;100.00
13027;BME280;6580;42.680;23.324;2024-02-16T05:29:03;95930.75;;;2.37;100.00
13027;BME280;6580;42.680;23.324;2024-02-16T05:31:30;95927.03;;;2.41;100.00
13027;BME280;6580;42.680;23.324;2024-02-16T05:33:59;95933.97;;;2.28;100.00
13027;BME280;6580;42.680;23.324;2024-02-16T05:36:26;95941.84;;;2.28;100.00
13027;BME280;6580;42.680;23.324;2024-02-16T05:38:56;95937.94;;;2.35;100.00
13027;BME280;6580;42.680;23.324;2024-02-16T05:41:35;95939.69;;;2.34;100.00
13027;BME280;6580;42.680;23.324;2024-02-16T05:44:04;95942.97;;;2.24;100.00
13027;BME280;6580;42.680;23.324;2024-02-16T05:46:31;95946.53;;;2.23;100.00
13027;BME280;6580;42.680;23.324;2024-02-16T05:49:03;95934.50;;;2.19;100.00
13027;BME280;6580;42.680;23.324;2024-02-16T05:51:34;95875.56;;;2.09;100.00
13027;BME280;6580;42.680;23.324;2024-02-16T05:54:03;95944.00;;;2.35;100.00
13027;BME280;6580;42.680;23.324;2024-02-16T05:56:30;95948.63;;;2.46;100.00
13027;BME280;6580;42.680;23.324;2024-02-16T05:58:59;95949.56;;;2.45;100.00
13027;BME280;6580;42.680;23.324;2024-02-16T06:01:26;95947.69;;;2.47;100.00
13027;BME280;6580;42.680;23.324;2024-02-16T06:03:53;95945.81;;;2.49;100.00
13027;BME280;6580;42.680;23.324;2024-02-16T06:06:22;95935.38;;;2.47;100.00
13027;BME280;6580;42.680;23.324;2024-02-16T06:08:49;95936.53;;;2.71;100.00
13027;BME280;6580;42.680;23.324;2024-02-16T06:11:16;95940.94;;;2.85;100.00
13027;BME280;6580;42.680;23.324;2024-02-16T06:13:43;95942.63;;;2.99;100.00
13027;BME280;6580;42.680;23.324;2024-02-16T06:16:10;95946.09;;;3.00;100.00
13027;BME280;6580;42.680;23.324;2024-02-16T06:18:38;95943.09;;;2.92;100.00
13027;BME280;6580;42.680;23.324;2024-02-16T06:21:08;95937.94;;;2.91;100.00
13027;BME280;6580;42.680;23.324;2024-02-16T06:23:38;95956.00;;;3.23;100.00
13027;BME280;6580;42.680;23.324;2024-02-16T06:26:06;95955.75;;;3.27;100.00
13027;BME280;6580;42.680;23.324;2024-02-16T06:28:34;95953.84;;;3.43;100.00
13027;BME280;6580;42.680;23.324;2024-02-16T06:31:08;95950.84;;;3.62;100.00
13027;BME280;6580;42.680;23.324;2024-02-16T06:33:36;95946.22;;;3.65;100.00
13027;BME280;6580;42.680;23.324;2024-02-16T06:36:03;95943.06;;;3.60;100.00
13027;BME280;6580;42.680;23.324;2024-02-16T06:38:32;95942.63;;;3.66;100.00
13027;BME280;6580;42.680;23.324;2024-02-16T06:41:01;95936.47;;;3.53;100.00
13027;BME280;6580;42.680;23.324;2024-02-16T06:43:30;95944.47;;;4.04;100.00
13027;BME280;6580;42.680;23.324;2024-02-16T06:45:57;95945.28;;;4.69;100.00
13027;BME280;6580;42.680;23.324;2024-02-16T06:48:25;95935.84;;;5.02;98.86
13027;BME280;6580;42.680;23.324;2024-02-16T06:50:51;95940.69;;;5.20;94.70
13027;BME280;6580;42.680;23.324;2024-02-16T06:53:19;95931.06;;;5.68;91.45
13027;BME280;6580;42.680;23.324;2024-02-16T06:55:46;95932.25;;;5.87;87.95
13027;BME280;6580;42.680;23.324;2024-02-16T06:58:15;95934.09;;;5.98;87.21
13027;BME280;6580;42.680;23.324;2024-02-16T07:00:42;95934.38;;;6.29;84.77
13027;BME280;6580;42.680;23.324;2024-02-16T07:03:09;95932.00;;;6.37;83.20
13027;BME280;6580;42.680;23.324;2024-02-16T07:05:36;95929.13;;;6.16;82.29
13027;BME280;6580;42.680;23.324;2024-02-16T07:08:05;95935.34;;;6.04;83.38
13027;BME280;6580;42.680;23.324;2024-02-16T07:10:33;95938.41;;;5.75;84.83
13027;BME280;6580;42.680;23.324;2024-02-16T07:13:00;95951.28;;;5.56;86.09
13027;BME280;6580;42.680;23.324;2024-02-16T07:15:29;95945.19;;;5.79;86.70
13027;BME280;6580;42.680;23.324;2024-02-16T07:17:56;95935.97;;;5.49;86.66
13027;BME280;6580;42.680;23.324;2024-02-16T07:20:23;95943.34;;;5.20;88.03
13027;BME280;6580;42.680;23.324;2024-02-16T07:22:50;95938.66;;;5.36;88.80
13027;BME280;6580;42.680;23.324;2024-02-16T07:25:18;95930.41;;;5.64;88.14
13027;BME280;6580;42.680;23.324;2024-02-16T07:27:47;95929.91;;;5.59;87.43
13027;BME280;6580;42.680;23.324;2024-02-16T07:30:14;95932.63;;;5.70;86.49
13027;BME280;6580;42.680;23.324;2024-02-16T07:32:48;95933.78;;;5.79;84.50
13027;BME280;6580;42.680;23.324;2024-02-16T07:35:15;95929.91;;;5.59;84.72
13027;BME280;6580;42.680;23.324;2024-02-16T07:37:42;95935.94;;;5.61;84.93
13027;BME280;6580;42.680;23.324;2024-02-16T07:40:10;95942.63;;;5.54;84.69
13027;BME280;6580;42.680;23.324;2024-02-16T07:42:38;95932.16;;;5.53;85.87
13027;BME280;6580;42.680;23.324;2024-02-16T07:45:08;95945.00;;;5.82;84.57
13027;BME280;6580;42.680;23.324;2024-02-16T07:47:37;95933.88;;;6.01;82.99
13027;BME280;6580;42.680;23.324;2024-02-16T07:50:06;95939.91;;;5.79;82.50
13027;BME280;6580;42.680;23.324;2024-02-16T07:52:33;95940.19;;;5.87;83.03
13027;BME280;6580;42.680;23.324;2024-02-16T07:55:00;95936.81;;;5.85;82.50
13027;BME280;6580;42.680;23.324;2024-02-16T07:57:27;95938.34;;;6.00;81.89
13027;BME280;6580;42.680;23.324;2024-02-16T07:59:54;95937.88;;;6.06;81.71
13027;BME280;6580;42.680;23.324;2024-02-16T08:02:21;95935.34;;;6.04;80.77
13027;BME280;6580;42.680;23.324;2024-02-16T08:04:49;95933.19;;;6.44;80.47
13027;BME280;6580;42.680;23.324;2024-02-16T08:07:17;95932.53;;;6.75;77.78
13027;BME280;6580;42.680;23.324;2024-02-16T08:09:45;95927.09;;;6.54;78.39
13027;BME280;6580;42.680;23.324;2024-02-16T08:12:12;95939.66;;;6.74;77.98
13027;BME280;6580;42.680;23.324;2024-02-16T08:14:39;95940.28;;;6.89;77.99
13027;BME280;6580;42.680;23.324;2024-02-16T08:17:06;95932.06;;;6.92;76.82
13027;BME280;6580;42.680;23.324;2024-02-16T08:19:35;95931.13;;;6.82;77.83
13027;BME280;6580;42.680;23.324;2024-02-16T08:22:02;95931.47;;;6.88;77.75
13027;BME280;6580;42.680;23.324;2024-02-16T08:24:33;95934.03;;;6.90;77.71
13027;BME280;6580;42.680;23.324;2024-02-16T08:27:00;95939.31;;;6.90;77.06
13027;BME280;6580;42.680;23.324;2024-02-16T08:29:27;95945.09;;;6.95;77.66
13027;BME280;6580;42.680;23.324;2024-02-16T08:31:54;95943.53;;;7.25;76.60
13027;BME280;6580;42.680;23.324;2024-02-16T08:34:22;95939.81;;;7.38;75.74
13027;BME280;6580;42.680;23.324;2024-02-16T08:36:51;95940.28;;;7.54;74.27
13027;BME280;6580;42.680;23.324;2024-02-16T08:39:18;95919.53;;;7.48;74.75
13027;BME280;6580;42.680;23.324;2024-02-16T08:41:47;95932.00;;;8.32;70.83
13027;BME280;6580;42.680;23.324;2024-02-16T08:44:16;95925.50;;;9.27;66.68
13027;BME280;6580;42.680;23.324;2024-02-16T08:46:45;95924.16;;;9.91;62.30
13027;BME280;6580;42.680;23.324;2024-02-16T08:49:14;95920.88;;;10.27;59.40
13027;BME280;6580;42.680;23.324;2024-02-16T08:51:41;95931.09;;;9.64;60.59
13027;BME280;6580;42.680;23.324;2024-02-16T08:54:09;95929.72;;;10.37;58.28
13027;BME280;6580;42.680;23.324;2024-02-16T08:56:36;95926.91;;;11.31;55.40
13027;BME280;6580;42.680;23.324;2024-02-16T08:59:06;95918.97;;;12.82;52.02
13027;BME280;6580;42.680;23.324;2024-02-16T09:01:33;95918.81;;;12.83;50.22
13027;BME280;6580;42.680;23.324;2024-02-16T09:04:01;95920.63;;;13.76;47.59
13027;BME280;6580;42.680;23.324;2024-02-16T09:06:29;95903.31;;;13.96;46.56
13027;BME280;6580;42.680;23.324;2024-02-16T09:08:57;95915.16;;;13.52;46.25
13027;BME280;6580;42.680;23.324;2024-02-16T09:11:25;95911.59;;;13.18;45.96
13027;BME280;6580;42.680;23.324;2024-02-16T09:13:53;95927.16;;;13.48;45.55
13027;BME280;6580;42.680;23.324;2024-02-16T09:16:21;95909.34;;;14.39;43.80
13027;BME280;6580;42.680;23.324;2024-02-16T09:18:48;95910.56;;;14.69;43.20
13027;BME280;6580;42.680;23.324;2024-02-16T09:21:15;95914.16;;;15.71;41.66
13027;BME280;6580;42.680;23.324;2024-02-16T09:23:42;95910.91;;;16.91;38.88
13027;BME280;6580;42.680;23.324;2024-02-16T09:26:09;95915.22;;;16.09;39.02
13027;BME280;6580;42.680;23.324;2024-02-16T09:28:39;95909.59;;;16.64;37.50
13027;BME280;6580;42.680;23.324;2024-02-16T09:31:07;95912.59;;;17.29;36.92
13027;BME280;6580;42.680;23.324;2024-02-16T09:33:39;95905.63;;;18.00;35.70
13027;BME280;6580;42.680;23.324;2024-02-16T09:36:06;95908.44;;;17.04;36.05
13027;BME280;6580;42.680;23.324;2024-02-16T09:38:33;95902.69;;;17.07;36.54
13027;BME280;6580;42.680;23.324;2024-02-16T09:41:00;95902.34;;;17.10;36.69
13027;BME280;6580;42.680;23.324;2024-02-16T09:43:29;95893.66;;;18.31;34.68
13027;BME280;6580;42.680;23.324;2024-02-16T09:45:58;95896.19;;;18.53;33.93
13027;BME280;6580;42.680;23.324;2024-02-16T09:48:27;95896.06;;;18.26;34.32
13027;BME280;6580;42.680;23.324;2024-02-16T09:50:57;95890.94;;;18.02;34.68
13027;BME280;6580;42.680;23.324;2024-02-16T09:53:27;95888.34;;;18.38;33.49
13027;BME280;6580;42.680;23.324;2024-02-16T09:55:55;95871.72;;;18.34;33.92
13027;BME280;6580;42.680;23.324;2024-02-16T09:58:24;95873.00;;;19.36;32.58
13027;BME280;6580;42.680;23.324;2024-02-16T10:00:51;95873.25;;;19.75;32.13
13027;BME280;6580;42.680;23.324;2024-02-16T10:03:26;95876.00;;;19.06;32.50
13027;BME280;6580;42.680;23.324;2024-02-16T10:06:05;95873.13;;;17.72;34.03
13027;BME280;6580;42.680;23.324;2024-02-16T10:08:33;95882.41;;;17.55;34.95
13027;BME280;6580;42.680;23.324;2024-02-16T10:11:01;95853.13;;;18.25;33.86
13027;BME280;6580;42.680;23.324;2024-02-16T10:13:29;95857.38;;;18.69;33.51
13027;BME280;6580;42.680;23.324;2024-02-16T10:16:07;95858.09;;;18.42;34.16
13027;BME280;6580;42.680;23.324;2024-02-16T10:18:35;95858.47;;;18.39;33.97
13027;BME280;6580;42.680;23.324;2024-02-16T10:21:03;95856.22;;;17.64;34.66
13027;BME280;6580;42.680;23.324;2024-02-16T10:23:31;95853.84;;;18.04;34.42
13027;BME280;6580;42.680;23.324;2024-02-16T10:25:58;95853.56;;;18.28;33.94
13027;BME280;6580;42.680;23.324;2024-02-16T10:28:28;95829.63;;;17.90;34.35
13027;BME280;6580;42.680;23.324;2024-02-16T10:30:58;95850.28;;;18.47;33.35
13027;BME280;6580;42.680;23.324;2024-02-16T10:33:28;95843.34;;;18.09;33.76
13027;BME280;6580;42.680;23.324;2024-02-16T10:35:57;95853.78;;;18.47;33.54
13027;BME280;6580;42.680;23.324;2024-02-16T10:38:25;95834.59;;;18.36;33.60
13027;BME280;6580;42.680;23.324;2024-02-16T10:40:56;95840.94;;;18.29;33.96
13027;BME280;6580;42.680;23.324;2024-02-16T10:43:25;95833.81;;;18.42;33.83
13027;BME280;6580;42.680;23.324;2024-02-16T10:45:53;95825.34;;;19.08;33.05
13027;BME280;6580;42.680;23.324;2024-02-16T10:48:23;95836.03;;;18.74;32.93
13027;BME280;6580;42.680;23.324;2024-02-16T10:50:51;95819.56;;;19.38;32.35
13027;BME280;6580;42.680;23.324;2024-02-16T10:53:24;95828.66;;;18.82;32.67
13027;BME280;6580;42.680;23.324;2024-02-16T10:55:57;95825.75;;;19.59;32.41
13027;BME280;6580;42.680;23.324;2024-02-16T10:58:24;95813.09;;;20.47;31.50
13027;BME280;6580;42.680;23.324;2024-02-16T11:00:52;95806.72;;;20.74;30.93
13027;BME280;6580;42.680;23.324;2024-02-16T11:03:22;95803.19;;;20.14;30.93
13027;BME280;6580;42.680;23.324;2024-02-16T11:05:51;95808.66;;;20.27;31.12
13027;BME280;6580;42.680;23.324;2024-02-16T11:08:19;95809.06;;;20.24;30.86
13027;BME280;6580;42.680;23.324;2024-02-16T11:11:01;95808.72;;;20.46;30.62
13027;BME280;6580;42.680;23.324;2024-02-16T11:13:32;95802.19;;;21.07;30.19
13027;BME280;6580;42.680;23.324;2024-02-16T11:16:01;95795.72;;;21.59;29.42
13027;BME280;6580;42.680;23.324;2024-02-16T11:18:29;95812.34;;;19.45;31.48
13027;BME280;6580;42.680;23.324;2024-02-16T11:21:00;95806.97;;;18.97;32.72
13027;BME280;6580;42.680;23.324;2024-02-16T11:23:27;95803.06;;;19.54;32.08
13027;BME280;6580;42.680;23.324;2024-02-16T11:26:01;95800.03;;;20.04;31.99
13027;BME280;6580;42.680;23.324;2024-02-16T11:28:31;95792.63;;;21.17;30.62
13027;BME280;6580;42.680;23.324;2024-02-16T11:30:58;95762.38;;;21.07;30.14
13027;BME280;6580;42.680;23.324;2024-02-16T11:33:25;95777.44;;;22.05;29.24
13027;BME280;6580;42.680;23.324;2024-02-16T11:35:54;95768.97;;;22.39;28.76
13027;BME280;6580;42.680;23.324;2024-02-16T11:38:22;95777.56;;;21.66;29.10
13027;BME280;6580;42.680;23.324;2024-02-16T11:40:56;95768.88;;;20.08;31.04
13027;BME280;6580;42.680;23.324;2024-02-16T11:43:25;95768.59;;;21.40;30.12
13027;BME280;6580;42.680;23.324;2024-02-16T11:45:55;95772.44;;;22.02;29.07
13027;BME280;6580;42.680;23.324;2024-02-16T11:48:23;95767.66;;;22.48;28.64
13027;BME280;6580;42.680;23.324;2024-02-16T11:50:59;95765.06;;;21.65;29.16
13027;BME280;6580;42.680;23.324;2024-02-16T11:53:26;95761.47;;;22.28;28.53
13027;BME280;6580;42.680;23.324;2024-02-16T11:55:53;95760.84;;;21.82;28.71
13027;BME280;6580;42.680;23.324;2024-02-16T11:58:20;95755.13;;;21.97;28.66
13027;BME280;6580;42.680;23.324;2024-02-16T12:00:49;95763.41;;;19.61;30.59
13027;BME280;6580;42.680;23.324;2024-02-16T12:03:20;95775.50;;;20.84;29.76
13027;BME280;6580;42.680;23.324;2024-02-16T12:05:51;95774.34;;;18.29;32.71
13027;BME280;6580;42.680;23.324;2024-02-16T12:08:18;95759.59;;;20.43;30.01
13027;BME280;6580;42.680;23.324;2024-02-16T12:10:47;95761.34;;;20.95;29.28
13027;BME280;6580;42.680;23.324;2024-02-16T12:13:16;95750.50;;;20.03;29.95
13027;BME280;6580;42.680;23.324;2024-02-16T12:15:43;95758.41;;;19.98;30.56
13027;BME280;6580;42.680;23.324;2024-02-16T12:18:19;95755.47;;;19.19;31.49
13027;BME280;6580;42.680;23.324;2024-02-16T12:20:59;95751.75;;;21.19;29.12
13027;BME280;6580;42.680;23.324;2024-02-16T12:23:26;95745.75;;;21.99;28.41
13027;BME280;6580;42.680;23.324;2024-02-16T12:25:53;95746.47;;;21.75;28.98
13027;BME280;6580;42.680;23.324;2024-02-16T12:28:24;95741.00;;;22.39;28.10
13027;BME280;6580;42.680;23.324;2024-02-16T12:30:52;95741.66;;;21.77;28.61
13027;BME280;6580;42.680;23.324;2024-02-16T12:33:20;95747.19;;;20.87;29.54
13027;BME280;6580;42.680;23.324;2024-02-16T12:35:48;95626.38;;;20.86;29.26
13027;BME280;6580;42.680;23.324;2024-02-16T12:38:15;95745.44;;;20.60;29.53
13027;BME280;6580;42.680;23.324;2024-02-16T12:40:44;95736.53;;;20.79;29.48
13027;BME280;6580;42.680;23.324;2024-02-16T12:43:11;95737.50;;;21.55;28.97
13027;BME280;6580;42.680;23.324;2024-02-16T12:45:39;95728.38;;;21.31;29.45
13027;BME280;6580;42.680;23.324;2024-02-16T12:48:06;95731.97;;;21.05;29.67
13027;BME280;6580;42.680;23.324;2024-02-16T12:50:39;95726.50;;;22.07;28.41
13027;BME280;6580;42.680;23.324;2024-02-16T12:53:07;95733.75;;;20.34;30.62
13027;BME280;6580;42.680;23.324;2024-02-16T12:55:34;95732.03;;;20.13;30.76
13027;BME280;6580;42.680;23.324;2024-02-16T12:58:03;95732.09;;;19.12;31.93
13027;BME280;6580;42.680;23.324;2024-02-16T13:00:30;95715.25;;;20.50;30.39
13027;BME280;6580;42.680;23.324;2024-02-16T13:02:57;95734.22;;;20.50;30.79
13027;BME280;6580;42.680;23.324;2024-02-16T13:05:24;95729.28;;;20.86;30.06
13027;BME280;6580;42.680;23.324;2024-02-16T13:07:52;95712.63;;;20.89;29.69